createdAt,value
2023-06-29T00:01:25.433Z,7.10
2023-06-29T00:04:30.741Z,13.03
2023-06-29T00:07:34.948Z,15.20
2023-06-29T00:10:38.854Z,10.35
2023-06-29T00:13:43.025Z,7.63
2023-06-29T00:16:51.675Z,12.52
2023-06-29T00:19:55.509Z,10.00
2023-06-29T00:23:00.465Z,14.52
2023-06-29T00:26:05.056Z,7.77
2023-06-29T00:29:08.614Z,8.80
2023-06-29T00:32:15.367Z,10.60
2023-06-29T00:35:21.828Z,18.23
2023-06-29T00:38:26.175Z,9.57
2023-06-29T00:41:29.866Z,8.30
2023-06-29T00:44:33.842Z,11.18
2023-06-29T00:47:39.295Z,11.48
2023-06-29T00:50:44.340Z,11.93
2023-06-29T00:53:51.787Z,11.73
2023-06-29T00:57:00.019Z,9.50
2023-06-29T01:00:06.934Z,10.23
2023-06-29T01:03:15.478Z,10.60
2023-06-29T01:06:25.272Z,11.40
2023-06-29T01:09:32.408Z,9.38
2023-06-29T01:12:37.212Z,12.45
2023-06-29T01:15:43.292Z,10.30
2023-06-29T01:18:50.292Z,11.18
2023-06-29T01:22:03.262Z,11.68
2023-06-29T01:25:11.696Z,8.95
2023-06-29T01:28:15.969Z,10.53
2023-06-29T01:31:19.939Z,10.70
2023-06-29T01:34:24.206Z,12.38
2023-06-29T01:37:33.440Z,9.52
2023-06-29T01:40:42.904Z,11.15
2023-06-29T01:43:47.479Z,12.88
2023-06-29T01:46:56.492Z,13.27
2023-06-29T01:50:01.175Z,10.03
2023-06-29T01:53:05.395Z,8.73
2023-06-29T01:56:10.589Z,11.52
2023-06-29T01:59:14.752Z,9.27
2023-06-29T02:02:18.422Z,8.73
2023-06-29T02:05:22.680Z,9.82
2023-06-29T02:08:27.642Z,10.57
2023-06-29T02:11:32.967Z,9.30
2023-06-29T02:14:36.744Z,10.68
2023-06-29T02:17:40.642Z,15.43
2023-06-29T02:20:44.520Z,12.67
2023-06-29T02:23:48.470Z,9.63
2023-06-29T02:26:54.075Z,8.65
2023-06-29T02:29:58.135Z,10.57
2023-06-29T02:33:01.730Z,11.23
2023-06-29T02:36:06.772Z,11.55
2023-06-29T02:39:10.848Z,10.35
2023-06-29T02:42:16.253Z,14.20
2023-06-29T02:45:19.873Z,14.02
2023-06-29T02:48:24.028Z,13.38
2023-06-29T02:51:28.050Z,13.87
2023-06-29T02:54:37.883Z,12.00
2023-06-29T02:57:42.942Z,12.80
2023-06-29T03:00:46.824Z,13.73
2023-06-29T03:03:50.592Z,13.68
2023-06-29T03:06:54.474Z,12.65
2023-06-29T03:09:58.059Z,16.42
2023-06-29T03:13:03.219Z,13.57
2023-06-29T03:16:09.183Z,19.40
2023-06-29T03:19:14.866Z,15.20
2023-06-29T03:22:18.573Z,14.27
2023-06-29T03:25:22.780Z,13.02
2023-06-29T03:28:28.015Z,13.93
2023-06-29T03:31:31.851Z,12.90
2023-06-29T03:34:35.541Z,16.40
2023-06-29T03:37:39.495Z,15.73
2023-06-29T03:40:43.124Z,15.45
2023-06-29T03:43:49.449Z,15.30
2023-06-29T03:46:53.818Z,14.95
2023-06-29T03:49:57.863Z,11.85
2023-06-29T03:53:01.484Z,12.77
2023-06-29T03:56:05.932Z,17.70
2023-06-29T03:59:10.917Z,14.35
2023-06-29T04:02:14.975Z,15.13
2023-06-29T04:05:19.321Z,13.32
2023-06-29T04:08:23.768Z,13.98
2023-06-29T04:11:27.358Z,16.27
2023-06-29T04:14:32.717Z,14.13
2023-06-29T04:17:36.603Z,14.25
2023-06-29T04:20:40.493Z,15.70
2023-06-29T04:23:44.139Z,17.33
2023-06-29T04:26:48.002Z,15.48
2023-06-29T04:29:53.433Z,16.35
2023-06-29T04:33:00.864Z,16.45
2023-06-29T04:36:05.265Z,13.57
2023-06-29T04:39:09.974Z,14.75
2023-06-29T04:42:14.744Z,16.02
2023-06-29T04:45:20.080Z,14.97
2023-06-29T04:48:30.009Z,15.00
2023-06-29T04:51:33.889Z,17.20
2023-06-29T04:54:37.845Z,16.53
2023-06-29T04:57:41.686Z,14.98
2023-06-29T05:00:47.330Z,13.90
2023-06-29T05:03:51.749Z,14.75
2023-06-29T05:06:56.201Z,16.65
2023-06-29T05:10:00.542Z,16.10
2023-06-29T05:13:04.186Z,15.20
2023-06-29T05:16:09.800Z,13.03
2023-06-29T05:19:13.824Z,15.65
2023-06-29T05:22:17.864Z,13.38
2023-06-29T05:25:21.946Z,13.53
2023-06-29T05:28:25.661Z,12.57
2023-06-29T05:31:30.816Z,11.82
2023-06-29T05:34:36.598Z,12.57
2023-06-29T05:37:40.900Z,13.40
2023-06-29T05:40:44.977Z,12.07
2023-06-29T05:43:48.859Z,12.45
2023-06-29T05:46:54.013Z,12.37
2023-06-29T05:49:57.736Z,13.40
2023-06-29T05:53:01.530Z,10.18
2023-06-29T05:56:05.835Z,14.43
2023-06-29T05:59:09.666Z,12.90
2023-06-29T06:02:14.644Z,12.70
2023-06-29T06:05:18.608Z,11.02
2023-06-29T06:08:22.509Z,11.63
2023-06-29T06:11:26.333Z,13.18
2023-06-29T06:14:30.111Z,11.02
2023-06-29T06:17:35.324Z,11.40
2023-06-29T06:20:39.269Z,12.63
2023-06-29T06:23:43.010Z,9.73
2023-06-29T06:26:47.006Z,10.98
2023-06-29T06:29:50.737Z,13.07
2023-06-29T06:32:55.743Z,11.95
2023-06-29T06:36:00.751Z,11.32
2023-06-29T06:39:04.893Z,11.03
2023-06-29T06:42:08.986Z,10.65
2023-06-29T06:45:14.769Z,11.40
2023-06-29T06:48:20.091Z,9.90
2023-06-29T06:51:24.233Z,13.03
2023-06-29T06:54:28.097Z,11.10
2023-06-29T06:57:31.937Z,14.70
2023-06-29T07:00:35.918Z,11.90
2023-06-29T07:03:41.141Z,10.45
2023-06-29T07:06:44.851Z,10.80
2023-06-29T07:09:49.445Z,14.10
2023-06-29T07:12:53.396Z,12.27
2023-06-29T07:15:57.965Z,11.77
2023-06-29T07:25:22.290Z,11.77
2023-06-29T07:28:25.996Z,11.40
2023-06-29T07:31:30.892Z,10.00
2023-06-29T07:34:36.027Z,12.45
2023-06-29T07:37:39.745Z,14.33
2023-06-29T07:40:43.665Z,12.27
2023-06-29T07:43:51.309Z,13.20
2023-06-29T07:46:54.986Z,12.18
2023-06-29T07:50:00.151Z,8.53
2023-06-29T07:53:04.023Z,8.02
2023-06-29T07:56:07.821Z,8.52
2023-06-29T07:59:11.543Z,10.80
2023-06-29T08:02:15.559Z,8.65
2023-06-29T08:08:31.068Z,7.13
2023-06-29T08:11:35.283Z,6.63
2023-06-29T08:14:40.188Z,7.05
2023-06-29T08:17:44.505Z,8.52
2023-06-29T08:20:50.031Z,8.30
2023-06-29T08:23:54.138Z,6.38
2023-06-29T08:26:57.878Z,6.13
2023-06-29T08:30:03.441Z,5.95
2023-06-29T08:33:07.432Z,5.40
2023-06-29T08:36:13.079Z,6.97
2023-06-29T08:39:16.764Z,6.93
2023-06-29T08:42:20.898Z,6.50
2023-06-29T08:45:24.816Z,5.57
2023-06-29T08:48:32.232Z,6.22
2023-06-29T08:51:41.562Z,5.78
2023-06-29T08:54:45.586Z,7.10
2023-06-29T08:57:49.453Z,5.05
2023-06-29T09:00:55.619Z,5.55
2023-06-29T09:03:59.929Z,5.40
2023-06-29T09:07:05.584Z,6.22
2023-06-29T09:10:12.612Z,6.23
2023-06-29T09:13:16.424Z,4.10
2023-06-29T09:16:20.260Z,5.68
2023-06-29T09:19:25.525Z,5.15
2023-06-29T09:22:31.978Z,5.22
2023-06-29T09:25:40.132Z,6.00
2023-06-29T09:28:47.905Z,4.00
2023-06-29T09:31:58.508Z,4.75
2023-06-29T09:35:08.313Z,5.65
2023-06-29T09:38:13.752Z,3.83
2023-06-29T09:41:17.410Z,5.87
2023-06-29T09:44:22.356Z,4.25
2023-06-29T09:50:35.064Z,5.00
2023-06-29T09:53:40.259Z,3.92
2023-06-29T09:56:45.242Z,11.63
2023-06-29T09:59:50.848Z,6.32
2023-06-29T10:02:55.702Z,5.32
2023-06-29T10:06:08.632Z,7.22
2023-06-29T10:09:18.647Z,4.90
2023-06-29T10:12:27.475Z,5.83
2023-06-29T10:15:31.776Z,6.93
2023-06-29T10:18:39.766Z,5.40
2023-06-29T10:21:45.145Z,3.97
2023-06-29T10:24:55.452Z,3.60
2023-06-29T10:27:59.342Z,3.80
2023-06-29T10:31:03.245Z,4.05
2023-06-29T10:34:09.390Z,9.55
2023-06-29T10:37:31.686Z,2.70
2023-06-29T10:40:48.201Z,3.78
2023-06-29T10:43:59.214Z,6.43
2023-06-29T10:47:03.225Z,3.50
2023-06-29T10:50:21.459Z,5.18
2023-06-29T10:53:25.121Z,5.28
2023-06-29T10:56:33.497Z,3.15
2023-06-29T10:59:38.511Z,4.73
2023-06-29T11:02:43.496Z,5.10
2023-06-29T11:05:50.398Z,8.27
2023-06-29T11:08:54.202Z,4.30
2023-06-29T11:12:01.630Z,3.45
2023-06-29T11:18:33.463Z,5.18
2023-06-29T11:21:37.194Z,4.38
2023-06-29T11:24:43.855Z,4.28
2023-06-29T11:27:49.123Z,4.28
2023-06-29T11:30:56.134Z,3.00
2023-06-29T11:34:01.385Z,4.30
2023-06-29T11:40:21.544Z,4.10
2023-06-29T11:46:35.804Z,5.37
2023-06-29T11:49:39.679Z,3.67
2023-06-29T11:52:45.707Z,4.90
2023-06-29T11:55:52.740Z,4.13
2023-06-29T11:58:57.794Z,5.22
2023-06-29T12:02:02.428Z,3.27
2023-06-29T12:05:07.374Z,4.97
2023-06-29T12:08:11.679Z,3.92
2023-06-29T12:11:22.964Z,4.40
2023-06-29T12:14:31.070Z,3.63
2023-06-29T12:20:44.695Z,3.90
2023-06-29T12:23:50.709Z,3.80
2023-06-29T12:26:54.397Z,2.75
2023-06-29T12:29:59.531Z,4.43
2023-06-29T12:33:03.442Z,5.60
2023-06-29T12:36:07.175Z,5.07
2023-06-29T12:39:11.143Z,2.97
2023-06-29T12:42:14.873Z,5.93
2023-06-29T12:45:20.789Z,4.43
2023-06-29T12:48:24.563Z,2.83
2023-06-29T12:51:30.312Z,3.25
2023-06-29T12:54:34.869Z,4.85
2023-06-29T12:57:40.295Z,3.08
2023-06-29T13:00:45.555Z,3.60
2023-06-29T13:03:49.620Z,2.57
2023-06-29T13:06:55.942Z,4.15
2023-06-29T13:10:00.462Z,3.08
2023-06-29T13:13:04.930Z,5.20
2023-06-29T13:16:10.291Z,4.43
2023-06-29T13:19:14.026Z,2.83
2023-06-29T13:22:19.870Z,3.83
2023-06-29T13:25:23.650Z,3.42
2023-06-29T13:28:27.822Z,3.33
2023-06-29T13:31:33.003Z,2.17
2023-06-29T13:34:36.793Z,2.47
2023-06-29T13:37:40.490Z,3.42
2023-06-29T13:40:44.587Z,2.67
2023-06-29T13:43:48.522Z,3.22
2023-06-29T13:46:53.858Z,5.18
2023-06-29T13:49:57.562Z,3.10
2023-06-29T13:53:02.644Z,2.28
2023-06-29T13:56:06.867Z,8.27
2023-06-29T13:59:11.406Z,7.30
2023-06-29T14:02:16.763Z,2.60
2023-06-29T14:05:21.451Z,2.40
2023-06-29T14:08:25.803Z,2.60
2023-06-29T14:11:29.917Z,4.97
2023-06-29T14:14:36.279Z,4.60
2023-06-29T14:17:42.590Z,3.55
2023-06-29T14:20:46.396Z,3.10
2023-06-29T14:23:50.872Z,3.85
2023-06-29T14:26:54.954Z,3.90
2023-06-29T14:29:59.015Z,3.25
2023-06-29T14:33:10.270Z,4.07
2023-06-29T14:36:19.725Z,3.23
2023-06-29T14:39:23.411Z,4.65
2023-06-29T14:42:27.248Z,4.15
2023-06-29T14:45:30.901Z,1.98
2023-06-29T14:48:36.037Z,2.70
2023-06-29T14:51:39.933Z,3.50
2023-06-29T14:54:43.898Z,2.20
2023-06-29T14:57:49.748Z,4.53
2023-06-29T15:00:54.528Z,3.03
2023-06-29T15:03:59.849Z,2.27
2023-06-29T15:07:04.068Z,3.63
2023-06-29T15:10:09.231Z,2.58
2023-06-29T15:13:13.026Z,3.38
2023-06-29T15:16:17.222Z,2.10
2023-06-29T15:19:22.420Z,2.40
2023-06-29T15:22:26.372Z,2.67
2023-06-29T15:25:30.486Z,3.22
2023-06-29T15:28:34.284Z,3.00
2023-06-29T15:31:38.068Z,4.87
2023-06-29T15:34:43.206Z,2.23
2023-06-29T15:37:47.094Z,1.85
2023-06-29T15:40:51.565Z,2.28
2023-06-29T15:44:01.406Z,3.33
2023-06-29T15:47:07.327Z,3.00
2023-06-29T15:50:13.125Z,3.17
2023-06-29T15:53:16.898Z,3.80
2023-06-29T15:56:20.883Z,1.98
2023-06-29T16:07:49.739Z,3.03
2023-06-29T16:10:55.895Z,2.50
2023-06-29T16:13:59.705Z,2.97
2023-06-29T16:17:03.934Z,4.70
2023-06-29T16:20:09.477Z,3.87
2023-06-29T16:23:14.879Z,4.33
2023-06-29T16:26:19.077Z,2.80
2023-06-29T16:29:23.322Z,3.42
2023-06-29T16:32:27.002Z,3.03
2023-06-29T16:35:30.840Z,5.13
2023-06-29T16:38:35.893Z,2.50
2023-06-29T16:41:40.571Z,2.75
2023-06-29T16:44:44.163Z,3.00
2023-06-29T16:47:48.034Z,2.85
2023-06-29T16:50:51.614Z,4.40
2023-06-29T16:53:57.161Z,3.63
2023-06-29T16:57:00.722Z,3.30
2023-06-29T17:00:05.327Z,3.38
2023-06-29T17:03:09.172Z,2.67
2023-06-29T17:06:13.458Z,7.03
2023-06-29T17:09:18.968Z,2.37
2023-06-29T17:12:23.062Z,4.32
2023-06-29T17:15:26.843Z,3.42
2023-06-29T17:18:30.704Z,3.05
2023-06-29T17:21:34.254Z,3.23
2023-06-29T17:24:41.140Z,3.17
2023-06-29T17:27:44.664Z,3.72
2023-06-29T17:30:49.569Z,3.13
2023-06-29T17:33:55.317Z,3.10
2023-06-29T17:37:01.122Z,3.77
2023-06-29T17:40:10.657Z,3.90
2023-06-29T17:43:14.479Z,3.90
2023-06-29T17:46:18.231Z,4.22
2023-06-29T17:49:26.132Z,3.42
2023-06-29T17:52:30.214Z,4.10
2023-06-29T17:55:35.547Z,3.87
2023-06-29T17:58:39.242Z,3.03
2023-06-29T18:01:43.141Z,5.47
2023-06-29T18:04:46.707Z,3.72
2023-06-29T18:07:50.589Z,2.90
2023-06-29T18:10:55.900Z,3.13
2023-06-29T18:14:00.219Z,5.10
2023-06-29T18:17:04.627Z,2.92
2023-06-29T18:20:10.895Z,5.15
2023-06-29T18:23:14.536Z,3.87
2023-06-29T18:26:20.556Z,3.67
2023-06-29T18:29:24.579Z,4.05
2023-06-29T18:32:28.603Z,4.15
2023-06-29T18:35:32.283Z,3.85
2023-06-29T18:38:35.981Z,4.23
2023-06-29T18:41:40.857Z,4.50
2023-06-29T18:44:44.566Z,4.15
2023-06-29T18:47:48.934Z,4.85
2023-06-29T18:50:52.792Z,3.72
2023-06-29T18:53:56.320Z,5.13
2023-06-29T18:57:03.738Z,3.72
2023-06-29T19:00:09.690Z,3.75
2023-06-29T19:03:13.627Z,6.22
2023-06-29T19:06:17.478Z,5.32
2023-06-29T19:09:24.558Z,4.37
2023-06-29T19:12:29.781Z,5.03
2023-06-29T19:15:33.733Z,6.45
2023-06-29T19:18:37.589Z,7.35
2023-06-29T19:21:49.138Z,4.22
2023-06-29T19:24:54.169Z,5.53
2023-06-29T19:27:59.583Z,4.90
2023-06-29T19:31:03.610Z,4.03
2023-06-29T19:34:08.170Z,4.45
2023-06-29T19:37:12.073Z,5.20
2023-06-29T19:40:16.014Z,5.30
2023-06-29T19:43:21.125Z,5.05
2023-06-29T19:46:25.126Z,5.40
2023-06-29T19:49:28.870Z,5.78
2023-06-29T19:52:32.858Z,6.25
2023-06-29T19:55:36.550Z,5.17
2023-06-29T19:58:41.995Z,6.40
2023-06-29T20:01:45.710Z,7.30
2023-06-29T20:04:50.503Z,4.40
2023-06-29T20:07:55.486Z,6.28
2023-06-29T20:10:59.416Z,5.47
2023-06-29T20:14:04.982Z,6.47
2023-06-29T20:17:09.069Z,5.13
2023-06-29T20:20:14.102Z,7.82
2023-06-29T20:23:19.978Z,6.67
2023-06-29T20:26:23.893Z,6.10
2023-06-29T20:29:29.062Z,5.13
2023-06-29T20:32:33.134Z,6.05
2023-06-29T20:35:37.750Z,5.20
2023-06-29T20:38:43.086Z,6.32
2023-06-29T20:41:47.225Z,6.10
2023-06-29T20:44:57.414Z,7.22
2023-06-29T20:48:01.530Z,5.57
2023-06-29T20:51:17.176Z,5.43
2023-06-29T20:54:22.830Z,9.07
2023-06-29T20:57:26.535Z,6.03
2023-06-29T21:00:33.920Z,6.30
